Time;durP1;ratioP1;P1;durP2;ratioP2;P2;SDS_P1;SDS_P2;PMS_P1;PMS_P2;Temp;Humidity;BMP_temperature;BMP_pressure;BME280_temperature;BME280_humidity;BME280_pressure;Samples;Min_cycle;Max_cycle;Signal;HPM_P1;HPM_P2
2022/03/11 00:00:49;;;;;;;11.60;5.05;;;5.30;99.90;;;;;;5046344;28;20025;-74
2022/03/11 00:03:15;;;;;;;16.85;6.68;;;5.30;99.90;;;;;;5046158;28;20025;-75
2022/03/11 00:05:52;;;;;;;15.93;6.45;;;5.30;99.90;;;;;;5027870;28;20033;-75
2022/03/11 00:08:18;;;;;;;11.75;5.18;;;5.20;99.90;;;;;;5028327;28;20030;-74
2022/03/11 00:10:44;;;;;;;18.88;6.15;;;5.20;99.90;;;;;;5027888;28;20056;-73
2022/03/11 00:13:09;;;;;;;20.42;6.35;;;5.20;99.90;;;;;;5028051;28;20067;-73
2022/03/11 00:15:45;;;;;;;15.70;5.10;;;5.10;99.90;;;;;;5027208;28;20037;-74
2022/03/11 00:18:15;;;;;;;12.40;5.88;;;5.10;99.90;;;;;;5045568;28;20045;-73
2022/03/11 00:20:41;;;;;;;16.33;6.18;;;5.00;99.90;;;;;;5043720;28;20032;-73
2022/03/11 00:23:06;;;;;;;14.10;6.22;;;4.90;99.90;;;;;;5045979;28;20040;-73
2022/03/11 00:25:32;;;;;;;11.20;5.45;;;4.90;99.90;;;;;;5045477;28;20026;-74
2022/03/11 00:28:02;;;;;;;11.82;5.38;;;4.70;99.90;;;;;;5027974;28;20030;-74
2022/03/11 00:30:28;;;;;;;13.35;6.18;;;4.70;99.90;;;;;;5045635;28;20040;-74
2022/03/11 00:32:54;;;;;;;17.23;6.63;;;4.60;99.90;;;;;;5045314;28;20030;-74
2022/03/11 00:35:20;;;;;;;15.48;5.50;;;4.50;99.90;;;;;;5045778;28;20120;-74
2022/03/11 00:37:47;;;;;;;12.30;5.47;;;4.40;99.90;;;;;;5045398;28;20033;-73
2022/03/11 00:40:13;;;;;;;9.07;3.97;;;4.30;99.90;;;;;;5039045;28;20409;-74
2022/03/11 00:42:39;;;;;;;12.95;5.78;;;4.30;99.90;;;;;;5024285;28;20116;-73
2022/03/11 00:45:05;;;;;;;14.90;5.78;;;4.30;99.90;;;;;;5025303;28;20074;-74
2022/03/11 00:47:31;;;;;;;17.00;5.03;;;4.20;99.90;;;;;;5025083;28;20115;-76
2022/03/11 00:49:57;;;;;;;15.18;5.53;;;4.20;99.90;;;;;;5024362;28;20034;-73
2022/03/11 00:52:24;;;;;;;17.80;6.30;;;4.20;99.90;;;;;;5025567;28;20022;-74
2022/03/11 00:54:51;;;;;;;13.23;5.47;;;4.10;99.90;;;;;;5029691;28;20433;-75
2022/03/11 00:57:17;;;;;;;13.77;5.70;;;4.10;99.90;;;;;;5045491;28;20025;-74
2022/03/11 00:59:43;;;;;;;11.40;4.95;;;4.10;99.90;;;;;;5045041;28;20031;-74
2022/03/11 01:02:09;;;;;;;15.40;5.25;;;4.10;99.90;;;;;;5027293;28;20053;-74
2022/03/11 01:04:34;;;;;;;16.77;5.60;;;4.00;99.90;;;;;;5045143;28;20470;-73
2022/03/11 01:07:00;;;;;;;12.20;5.40;;;4.00;99.90;;;;;;5027162;28;20040;-73
2022/03/11 01:09:26;;;;;;;22.83;6.60;;;3.90;99.90;;;;;;5044774;28;20026;-73
2022/03/11 01:11:52;;;;;;;12.70;5.30;;;3.90;99.90;;;;;;5045237;28;20080;-73
2022/03/11 01:14:17;;;;;;;14.25;5.55;;;4.00;99.90;;;;;;5026942;28;20501;-73
2022/03/11 01:16:43;;;;;;;13.60;4.85;;;3.90;99.90;;;;;;5044787;28;20113;-77
2022/03/11 01:19:08;;;;;;;13.65;5.07;;;3.90;99.90;;;;;;5045076;28;20081;-75
2022/03/11 01:21:34;;;;;;;11.35;4.55;;;3.90;99.90;;;;;;5044849;28;20026;-74
2022/03/11 01:24:00;;;;;;;14.68;5.60;;;3.90;99.90;;;;;;5044749;28;20030;-74
2022/03/11 01:26:25;;;;;;;14.27;5.80;;;3.80;99.90;;;;;;5044932;28;20037;-76
2022/03/11 01:28:52;;;;;;;11.30;5.28;;;3.80;99.90;;;;;;5044645;28;20047;-72
2022/03/11 01:31:19;;;;;;;13.75;5.28;;;3.80;99.90;;;;;;5044612;28;20032;-74
2022/03/11 01:33:46;;;;;;;11.95;4.85;;;3.80;99.90;;;;;;5044888;28;20037;-73
2022/03/11 01:36:13;;;;;;;16.25;5.57;;;3.70;99.90;;;;;;5044445;28;20033;-74
2022/03/11 01:38:39;;;;;;;12.90;4.85;;;3.70;99.90;;;;;;5044671;28;20032;-73
2022/03/11 01:41:05;;;;;;;16.52;5.15;;;3.70;99.90;;;;;;5044830;28;20045;-72
2022/03/11 01:43:53;;;;;;;9.27;4.75;;;3.60;99.90;;;;;;5044122;28;20489;-74
2022/03/11 01:46:19;;;;;;;18.67;5.78;;;3.60;99.90;;;;;;5044761;28;20041;-74
2022/03/11 01:48:44;;;;;;;13.00;5.70;;;3.60;99.90;;;;;;5044671;28;20056;-74
2022/03/11 01:51:10;;;;;;;16.42;5.28;;;3.60;99.90;;;;;;5044070;28;20072;-73
2022/03/11 01:53:45;;;;;;;16.80;5.68;;;3.60;99.90;;;;;;5044605;28;20030;-76
2022/03/11 01:56:21;;;;;;;13.93;5.20;;;3.50;99.90;;;;;;5026567;28;20021;-74
2022/03/11 01:58:49;;;;;;;13.45;4.80;;;3.50;99.90;;;;;;5044195;28;20037;-74
2022/03/11 02:01:15;;;;;;;13.52;5.18;;;3.50;99.90;;;;;;5044537;28;20022;-74
2022/03/11 02:03:41;;;;;;;12.90;5.13;;;3.40;99.90;;;;;;5044168;28;20477;-73
2022/03/11 02:06:08;;;;;;;13.48;4.95;;;3.40;99.90;;;;;;5044239;28;20101;-73
2022/03/11 02:08:35;;;;;;;18.38;5.82;;;3.30;99.90;;;;;;5044429;28;20025;-73
2022/03/11 02:11:01;;;;;;;12.90;5.43;;;3.30;99.90;;;;;;5026559;28;20032;-74
2022/03/11 02:13:27;;;;;;;11.95;5.00;;;3.30;99.90;;;;;;5026375;28;20025;-74
2022/03/11 02:15:53;;;;;;;8.13;3.38;;;3.30;99.90;;;;;;5044463;28;20039;-74
2022/03/11 02:18:19;;;;;;;16.50;5.03;;;3.20;99.90;;;;;;5044273;28;20026;-74
2022/03/11 02:20:48;;;;;;;12.95;5.57;;;3.20;99.90;;;;;;5044200;28;20441;-73
2022/03/11 02:23:15;;;;;;;15.48;4.95;;;3.30;99.90;;;;;;5044317;28;20022;-74
2022/03/11 02:25:41;;;;;;;11.85;4.57;;;3.30;99.90;;;;;;5043870;28;20037;-73
2022/03/11 02:28:07;;;;;;;16.25;4.63;;;3.20;99.90;;;;;;5044299;28;20076;-74
2022/03/11 02:30:32;;;;;;;11.93;4.90;;;3.10;99.90;;;;;;5044252;28;20029;-75
2022/03/11 02:32:58;;;;;;;16.33;4.82;;;3.10;99.90;;;;;;5044128;28;20036;-74
2022/03/11 02:35:24;;;;;;;12.75;4.90;;;3.00;99.90;;;;;;5026362;28;20025;-73
2022/03/11 02:37:50;;;;;;;10.50;4.65;;;3.00;99.90;;;;;;5044726;28;20029;-73
2022/03/11 02:40:15;;;;;;;15.40;4.75;;;3.00;99.90;;;;;;5047436;28;20028;-74
2022/03/11 02:42:41;;;;;;;13.25;4.90;;;2.90;99.90;;;;;;5047478;28;20064;-74
2022/03/11 02:45:07;;;;;;;13.77;4.95;;;2.90;99.90;;;;;;5047533;28;20107;-74
2022/03/11 02:47:39;;;;;;;15.05;5.70;;;2.90;99.90;;;;;;5047150;28;20521;-74
2022/03/11 02:50:05;;;;;;;12.50;4.70;;;2.90;99.90;;;;;;5047665;28;20033;-74
2022/03/11 02:52:32;;;;;;;13.32;5.07;;;2.80;99.90;;;;;;5029875;28;20481;-75
2022/03/11 02:54:58;;;;;;;15.60;4.57;;;2.80;99.90;;;;;;5047245;28;20280;-73
2022/03/11 02:57:23;;;;;;;16.85;6.25;;;2.80;99.90;;;;;;5029645;28;20026;-74
2022/03/11 02:59:49;;;;;;;13.55;4.88;;;2.80;99.90;;;;;;5047381;28;20090;-73
2022/03/11 03:02:15;;;;;;;11.65;4.50;;;2.80;99.90;;;;;;5029239;28;20025;-74
2022/03/11 03:04:41;;;;;;;14.10;5.70;;;2.80;99.90;;;;;;5047196;28;20025;-74
2022/03/11 03:07:16;;;;;;;13.63;5.93;;;2.70;99.90;;;;;;5047338;28;20088;-74
2022/03/11 03:09:42;;;;;;;14.20;5.32;;;2.70;99.90;;;;;;5046953;28;20036;-75
2022/03/11 03:12:10;;;;;;;14.60;5.25;;;2.60;99.90;;;;;;5046836;28;20033;-74
2022/03/11 03:14:37;;;;;;;10.27;4.20;;;2.50;99.90;;;;;;5046856;28;20029;-74
2022/03/11 03:17:03;;;;;;;18.63;5.03;;;2.50;99.90;;;;;;5046799;28;20022;-74
2022/03/11 03:19:29;;;;;;;15.15;5.55;;;2.40;99.90;;;;;;5029392;28;20033;-73
2022/03/11 03:21:54;;;;;;;10.20;4.50;;;2.40;99.90;;;;;;5047202;28;20021;-75
2022/03/11 03:24:20;;;;;;;14.70;5.10;;;2.40;99.90;;;;;;5046780;28;20048;-74
2022/03/11 03:26:56;;;;;;;13.32;5.78;;;2.30;99.90;;;;;;5046920;28;20033;-76
2022/03/11 03:29:22;;;;;;;15.15;5.15;;;2.30;99.90;;;;;;5047172;28;20029;-74
2022/03/11 03:31:48;;;;;;;15.10;5.57;;;2.30;99.90;;;;;;5046511;28;20033;-73
2022/03/11 03:34:13;;;;;;;10.25;4.00;;;2.30;99.90;;;;;;5029025;28;20066;-74
2022/03/11 03:36:39;;;;;;;12.20;4.75;;;2.20;99.90;;;;;;5046810;28;20048;-74
2022/03/11 03:39:05;;;;;;;10.77;4.50;;;2.20;99.90;;;;;;5046340;28;20033;-74
2022/03/11 03:41:30;;;;;;;15.05;5.05;;;2.20;99.90;;;;;;5046548;28;20033;-73
2022/03/11 03:43:56;;;;;;;9.88;3.83;;;2.10;99.90;;;;;;5046001;28;20065;-74
2022/03/11 03:46:22;;;;;;;16.90;5.15;;;2.10;99.90;;;;;;5028712;28;20041;-73
2022/03/11 03:48:47;;;;;;;16.63;5.15;;;2.10;99.90;;;;;;5046604;28;20070;-75
2022/03/11 03:51:13;;;;;;;14.77;5.25;;;2.10;99.90;;;;;;5045169;28;20026;-73
2022/03/11 03:53:39;;;;;;;16.10;5.28;;;2.10;99.90;;;;;;5028664;28;20458;-74
2022/03/11 03:56:04;;;;;;;11.63;4.78;;;2.10;99.90;;;;;;5046447;28;20033;-74
2022/03/11 03:58:31;;;;;;;13.88;4.70;;;2.10;99.90;;;;;;5046075;28;20088;-76
2022/03/11 04:00:57;;;;;;;10.65;4.32;;;2.10;99.90;;;;;;5028003;28;20025;-74
2022/03/11 04:03:24;;;;;;;11.25;3.97;;;2.00;99.90;;;;;;5046324;28;20064;-74
2022/03/11 04:05:50;;;;;;;10.75;5.25;;;2.00;99.90;;;;;;5045933;28;20037;-73
2022/03/11 04:08:16;;;;;;;15.57;5.05;;;1.90;99.90;;;;;;5045793;28;20099;-72
2022/03/11 04:10:41;;;;;;;9.55;4.15;;;1.90;99.90;;;;;;5028232;28;20025;-74
2022/03/11 04:13:07;;;;;;;10.25;4.63;;;1.80;99.90;;;;;;5045620;28;20051;-73
2022/03/11 04:15:33;;;;;;;14.80;5.25;;;1.80;99.90;;;;;;5043995;28;20025;-73
2022/03/11 04:17:58;;;;;;;11.55;4.18;;;1.80;99.90;;;;;;5010189;28;20090;-74
2022/03/11 04:20:31;;;;;;;10.40;4.10;;;1.70;99.90;;;;;;5025951;28;20026;-74
2022/03/11 04:22:57;;;;;;;10.23;3.73;;;1.70;99.90;;;;;;5024699;28;20026;-73
2022/03/11 04:25:23;;;;;;;9.10;3.65;;;1.70;99.90;;;;;;5024670;28;20056;-74
2022/03/11 04:27:49;;;;;;;10.07;4.78;;;1.70;99.90;;;;;;5024240;28;20030;-73
2022/03/11 04:30:14;;;;;;;10.13;3.67;;;1.60;99.90;;;;;;5025792;28;20034;-75
2022/03/11 04:32:40;;;;;;;13.95;4.57;;;1.60;99.90;;;;;;5025352;28;20033;-73
2022/03/11 04:35:07;;;;;;;8.25;3.90;;;1.60;99.90;;;;;;5025721;28;20084;-74
2022/03/11 04:37:32;;;;;;;11.60;4.22;;;1.60;99.90;;;;;;5026001;28;20022;-73
2022/03/11 04:39:58;;;;;;;7.90;4.07;;;1.50;99.90;;;;;;5029559;28;20033;-75
2022/03/11 04:42:25;;;;;;;8.68;3.80;;;1.50;99.90;;;;;;5045626;28;20028;-74
2022/03/11 04:44:50;;;;;;;9.73;3.53;;;1.40;99.90;;;;;;5024071;28;20042;-74
2022/03/11 04:47:16;;;;;;;10.90;3.75;;;1.40;99.90;;;;;;5023660;28;20045;-74
2022/03/11 04:49:41;;;;;;;8.88;3.65;;;1.40;99.90;;;;;;5024379;28;20025;-74
2022/03/11 04:52:07;;;;;;;12.55;3.50;;;1.40;99.90;;;;;;5025566;28;20030;-74
2022/03/11 04:54:33;;;;;;;9.80;3.20;;;1.40;99.90;;;;;;5007440;28;20038;-75
2022/03/11 04:56:58;;;;;;;9.18;3.90;;;1.30;99.90;;;;;;5024229;28;20026;-73
2022/03/11 04:59:26;;;;;;;14.18;5.60;;;1.30;99.90;;;;;;5024297;28;20025;-73
2022/03/11 05:01:52;;;;;;;12.73;5.32;;;1.30;99.90;;;;;;4997941;28;20045;-75
2022/03/11 05:04:18;;;;;;;6.93;3.15;;;1.30;99.90;;;;;;5005841;28;20439;-74
2022/03/11 05:06:43;;;;;;;9.40;3.35;;;1.30;99.90;;;;;;5004261;28;20169;-74
2022/03/11 05:09:09;;;;;;;13.35;4.25;;;1.20;99.90;;;;;;5004938;28;20034;-73
2022/03/11 05:11:34;;;;;;;13.50;4.28;;;1.20;99.90;;;;;;5005583;28;20038;-76
2022/03/11 05:14:00;;;;;;;7.38;3.33;;;1.20;99.90;;;;;;5004169;28;20030;-73
2022/03/11 05:16:27;;;;;;;11.75;4.10;;;1.10;99.90;;;;;;5005210;28;20434;-74
2022/03/11 05:18:53;;;;;;;19.48;3.53;;;1.10;99.90;;;;;;5005750;28;20030;-74
2022/03/11 05:21:20;;;;;;;9.85;4.15;;;1.10;99.90;;;;;;5004101;28;20030;-73
2022/03/11 05:23:45;;;;;;;16.02;3.95;;;1.00;99.90;;;;;;5005314;28;20769;-73
2022/03/11 05:26:24;;;;;;;10.43;3.78;;;1.00;99.90;;;;;;5005249;28;20042;-73
2022/03/11 05:28:55;;;;;;;6.22;3.45;;;1.00;99.90;;;;;;5005433;28;20023;-75
2022/03/11 05:31:22;;;;;;;8.95;4.10;;;1.00;99.90;;;;;;5005240;28;20020;-73
2022/03/11 05:33:48;;;;;;;6.82;3.08;;;1.00;99.90;;;;;;5005397;28;20034;-74
2022/03/11 05:36:15;;;;;;;12.02;4.10;;;1.00;99.90;;;;;;5005360;28;20031;-74
2022/03/11 05:38:40;;;;;;;14.15;4.72;;;1.00;99.90;;;;;;5003667;28;20022;-75
2022/03/11 05:41:06;;;;;;;15.30;4.18;;;1.00;99.90;;;;;;5005469;28;20427;-74
2022/03/11 05:43:32;;;;;;;14.13;3.83;;;1.00;99.90;;;;;;5004707;28;20034;-73
2022/03/11 05:45:57;;;;;;;9.20;4.25;;;1.00;99.90;;;;;;5023251;28;20045;-74
2022/03/11 05:48:30;;;;;;;11.18;4.18;;;1.00;99.90;;;;;;5025094;28;20057;-75
2022/03/11 05:50:57;;;;;;;10.60;4.68;;;1.00;99.90;;;;;;5024817;28;20037;-74
2022/03/11 05:53:23;;;;;;;8.30;3.58;;;1.00;99.90;;;;;;5007318;28;20089;-73
2022/03/11 05:55:49;;;;;;;6.85;3.53;;;0.90;99.90;;;;;;5024999;28;20034;-73
2022/03/11 05:58:14;;;;;;;9.15;4.10;;;0.90;99.90;;;;;;5023131;28;20037;-74
2022/03/11 06:00:40;;;;;;;8.18;3.70;;;0.90;99.90;;;;;;5024809;28;20029;-72
2022/03/11 06:03:06;;;;;;;8.93;3.35;;;0.90;99.90;;;;;;5024937;28;20080;-74
2022/03/11 06:05:31;;;;;;;8.52;3.97;;;0.90;99.90;;;;;;5022937;28;20041;-73
2022/03/11 06:07:57;;;;;;;9.55;3.90;;;0.80;99.90;;;;;;5024571;28;20026;-74
2022/03/11 06:10:23;;;;;;;10.10;3.55;;;0.80;99.90;;;;;;5024768;28;20022;-74
2022/03/11 06:12:48;;;;;;;22.25;4.10;;;0.80;99.90;;;;;;5028972;28;20030;-73
2022/03/11 06:15:15;;;;;;;10.73;4.57;;;0.80;99.90;;;;;;5028281;28;20030;-75
2022/03/11 06:17:42;;;;;;;10.82;4.57;;;0.90;99.90;;;;;;5010757;28;20026;-73
2022/03/11 06:20:09;;;;;;;10.60;3.75;;;0.90;99.90;;;;;;5027917;28;20026;-74
2022/03/11 06:22:36;;;;;;;8.18;4.00;;;1.00;99.90;;;;;;5028179;28;20078;-73
2022/03/11 06:25:02;;;;;;;11.13;4.13;;;1.00;99.90;;;;;;5027839;28;20126;-74
2022/03/11 06:27:28;;;;;;;11.75;3.75;;;1.10;99.90;;;;;;5027463;28;20026;-74
2022/03/11 06:29:54;;;;;;;12.05;4.55;;;1.10;99.90;;;;;;5028068;28;20018;-73
2022/03/11 06:32:20;;;;;;;15.48;3.88;;;1.10;99.90;;;;;;5010318;28;20032;-76
2022/03/11 06:34:48;;;;;;;10.73;3.97;;;1.10;99.90;;;;;;5012498;28;20038;-75
2022/03/11 06:37:16;;;;;;;8.75;3.63;;;1.20;99.90;;;;;;5041121;28;20061;-73
2022/03/11 06:39:42;;;;;;;6.38;3.17;;;1.20;99.90;;;;;;5025181;28;20311;-74
2022/03/11 06:42:08;;;;;;;10.82;4.15;;;1.30;99.90;;;;;;5026857;28;20112;-73
2022/03/11 06:44:33;;;;;;;9.88;4.30;;;1.30;99.90;;;;;;5027260;28;20054;-72
2022/03/11 06:46:59;;;;;;;12.50;3.88;;;1.30;99.90;;;;;;5027622;28;20069;-73
2022/03/11 06:49:24;;;;;;;14.80;4.57;;;1.30;99.90;;;;;;5026215;28;20026;-74
2022/03/11 06:51:50;;;;;;;11.55;4.43;;;1.40;99.90;;;;;;5010263;28;20033;-75
2022/03/11 06:54:15;;;;;;;8.02;3.95;;;1.40;99.90;;;;;;5027357;28;20708;-74
2022/03/11 06:56:42;;;;;;;13.02;3.92;;;1.50;99.90;;;;;;5027398;28;20037;-73
2022/03/11 06:59:07;;;;;;;10.65;3.72;;;1.50;99.90;;;;;;5027605;28;20036;-73
2022/03/11 07:01:33;;;;;;;12.80;4.88;;;1.60;99.90;;;;;;5009543;28;20085;-72
2022/03/11 07:04:00;;;;;;;10.52;3.25;;;1.60;99.90;;;;;;5026401;28;20049;-74
2022/03/11 07:06:26;;;;;;;10.23;3.17;;;1.70;99.90;;;;;;5027384;28;20394;-74
2022/03/11 07:08:52;;;;;;;12.40;4.20;;;1.70;99.90;;;;;;5027253;28;20375;-73
2022/03/11 07:11:17;;;;;;;17.88;5.28;;;1.90;99.90;;;;;;5027310;28;20042;-74
2022/03/11 07:13:44;;;;;;;13.77;4.75;;;2.00;99.90;;;;;;5027412;28;20030;-74
2022/03/11 07:16:10;;;;;;;8.82;3.53;;;2.10;99.90;;;;;;5027986;28;20446;-74
2022/03/11 07:18:36;;;;;;;14.15;4.45;;;2.20;99.90;;;;;;5039075;28;20378;-72
2022/03/11 07:21:01;;;;;;;6.40;3.13;;;2.20;99.90;;;;;;5046042;28;20041;-74
2022/03/11 07:23:28;;;;;;;14.02;4.63;;;2.30;99.90;;;;;;5028109;28;20025;-76
2022/03/11 07:26:15;;;;;;;15.07;4.55;;;2.40;99.90;;;;;;5046645;28;20048;-75
2022/03/11 07:28:49;;;;;;;10.80;4.50;;;2.50;99.90;;;;;;5035360;28;20145;-75
2022/03/11 07:31:15;;;;;;;11.77;4.28;;;2.50;99.90;;;;;;5038558;28;20056;-73
2022/03/11 07:33:40;;;;;;;8.45;3.85;;;2.60;99.90;;;;;;5026897;28;20094;-74
2022/03/11 07:36:06;;;;;;;15.63;5.30;;;2.70;99.90;;;;;;5026693;28;20022;-74
2022/03/11 07:38:31;;;;;;;12.05;4.50;;;2.80;99.90;;;;;;5025312;28;20030;-74
2022/03/11 07:40:58;;;;;;;21.25;4.80;;;2.90;99.90;;;;;;5026976;28;20033;-75
2022/03/11 07:43:25;;;;;;;12.13;3.95;;;2.90;99.90;;;;;;5038571;28;20029;-74
2022/03/11 07:45:52;;;;;;;13.75;4.38;;;2.90;99.90;;;;;;5041443;28;20118;-75
2022/03/11 07:48:18;;;;;;;9.15;4.03;;;3.00;99.90;;;;;;5026779;28;20394;-74
2022/03/11 07:50:45;;;;;;;14.93;4.38;;;3.10;99.90;;;;;;5041051;28;20080;-76
2022/03/11 07:53:16;;;;;;;6.53;2.80;;;3.30;99.90;;;;;;5046331;28;20033;-75
2022/03/11 07:55:41;;;;;;;26.27;3.78;;;3.60;99.90;;;;;;5045596;28;20458;-75
2022/03/11 07:58:07;;;;;;;8.77;3.63;;;3.90;99.90;;;;;;5040436;28;20029;-72
2022/03/11 08:00:32;;;;;;;10.93;4.25;;;4.10;99.90;;;;;;5043813;28;20025;-72
2022/03/11 08:03:00;;;;;;;9.95;3.88;;;4.30;99.90;;;;;;5026584;28;20033;-74
2022/03/11 08:05:26;;;;;;;12.35;4.03;;;4.40;99.90;;;;;;5026178;28;20030;-74
2022/03/11 08:07:52;;;;;;;11.73;4.53;;;4.70;99.90;;;;;;5026145;28;20545;-73
2022/03/11 08:10:18;;;;;;;12.65;3.55;;;4.80;99.90;;;;;;5026085;28;20084;-74
2022/03/11 08:12:44;;;;;;;8.73;4.40;;;4.90;99.90;;;;;;5025896;28;20030;-72
2022/03/11 08:15:12;;;;;;;9.43;3.28;;;5.00;99.90;;;;;;5025972;28;20049;-73
2022/03/11 08:17:39;;;;;;;10.30;4.00;;;5.20;99.90;;;;;;5025955;28;20053;-73
2022/03/11 08:20:05;;;;;;;15.55;4.85;;;5.30;99.90;;;;;;5025502;28;20072;-75
2022/03/11 08:22:34;;;;;;;11.98;4.22;;;5.40;99.90;;;;;;5024783;28;20026;-75
2022/03/11 08:25:02;;;;;;;12.45;4.43;;;5.60;99.90;;;;;;5025810;28;20026;-75
2022/03/11 08:27:28;;;;;;;8.52;3.58;;;5.70;99.90;;;;;;5027163;28;20042;-75
2022/03/11 08:29:55;;;;;;;7.80;3.65;;;5.90;99.90;;;;;;5045197;28;20049;-76
2022/03/11 08:32:20;;;;;;;9.27;3.90;;;5.80;99.90;;;;;;5036989;28;20033;-74
2022/03/11 08:34:46;;;;;;;11.23;3.92;;;5.90;99.90;;;;;;5029384;28;20051;-74
2022/03/11 08:37:11;;;;;;;11.68;4.20;;;6.00;99.90;;;;;;5044818;28;20033;-74
2022/03/11 08:39:37;;;;;;;11.55;4.50;;;6.20;99.90;;;;;;5027158;28;20393;-75
2022/03/11 08:42:02;;;;;;;13.90;4.75;;;6.20;99.90;;;;;;5045561;28;20026;-74
2022/03/11 08:44:28;;;;;;;14.77;4.40;;;6.20;99.90;;;;;;5043571;28;20053;-73
2022/03/11 08:46:54;;;;;;;13.32;5.45;;;6.30;99.90;;;;;;5026227;28;20033;-74
2022/03/11 08:49:19;;;;;;;10.27;3.83;;;6.20;99.90;;;;;;5045638;28;20034;-75
2022/03/11 08:51:45;;;;;;;11.43;5.07;;;6.40;99.90;;;;;;5042226;28;20076;-73
2022/03/11 08:54:10;;;;;;;10.23;3.25;;;6.60;99.90;;;;;;5039496;28;20060;-76
2022/03/11 08:56:38;;;;;;;11.07;4.28;;;6.70;99.90;;;;;;5029724;28;20033;-73
2022/03/11 08:59:05;;;;;;;10.30;4.18;;;6.80;99.90;;;;;;5040104;28;20085;-75
2022/03/11 09:01:30;;;;;;;9.48;3.72;;;6.80;99.90;;;;;;5043752;28;20055;-74
2022/03/11 09:03:56;;;;;;;12.23;3.47;;;6.80;99.90;;;;;;5044114;28;20029;-74
2022/03/11 09:06:22;;;;;;;9.57;4.28;;;6.90;99.90;;;;;;5043338;28;20499;-73
2022/03/11 09:08:49;;;;;;;15.05;4.63;;;7.00;99.90;;;;;;5024686;28;20033;-74
2022/03/11 09:11:16;;;;;;;14.85;3.83;;;7.30;99.90;;;;;;5041706;28;20033;-75
2022/03/11 09:13:43;;;;;;;16.70;4.63;;;7.30;99.90;;;;;;5009608;28;20049;-73
2022/03/11 09:16:09;;;;;;;25.52;3.88;;;7.30;99.90;;;;;;5025135;28;20478;-72
2022/03/11 09:18:34;;;;;;;14.65;4.40;;;7.30;99.90;;;;;;5039682;28;20029;-74
2022/03/11 09:21:01;;;;;;;11.18;3.42;;;7.30;99.90;;;;;;5014366;28;20026;-74
2022/03/11 09:23:27;;;;;;;9.40;3.92;;;7.30;99.90;;;;;;5042567;28;20033;-74
2022/03/11 09:25:54;;;;;;;11.90;3.85;;;7.20;99.90;;;;;;5045297;28;20033;-72
2022/03/11 09:28:20;;;;;;;12.48;4.40;;;7.20;99.90;;;;;;5038367;28;20022;-70
2022/03/11 09:30:46;;;;;;;8.45;3.65;;;7.20;99.90;;;;;;5038401;28;20037;-73
2022/03/11 09:33:12;;;;;;;14.75;3.42;;;7.30;99.80;;;;;;5024064;28;20057;-72
2022/03/11 09:35:38;;;;;;;11.90;4.22;;;7.50;99.70;;;;;;5024274;28;20030;-73
2022/03/11 09:38:03;;;;;;;9.52;3.60;;;7.50;98.90;;;;;;5027663;28;20037;-74
2022/03/11 09:40:29;;;;;;;6.45;2.90;;;7.60;99.30;;;;;;5030484;28;20053;-74
2022/03/11 09:42:56;;;;;;;10.52;3.45;;;7.60;99.60;;;;;;5035801;28;20021;-73
2022/03/11 09:45:23;;;;;;;5.82;3.17;;;7.70;99.30;;;;;;5044799;28;20077;-72
2022/03/11 09:47:49;;;;;;;6.40;2.83;;;7.80;98.80;;;;;;5046443;28;20411;-73
2022/03/11 09:50:15;;;;;;;9.18;3.10;;;8.00;99.30;;;;;;5047216;28;20045;-74
2022/03/11 09:52:42;;;;;;;8.10;3.20;;;8.30;98.50;;;;;;5048788;28;20029;-75
2022/03/11 09:55:08;;;;;;;6.97;3.20;;;8.40;98.30;;;;;;5030091;28;20029;-73
2022/03/11 09:57:34;;;;;;;15.07;3.25;;;8.40;96.70;;;;;;5043786;28;20041;-72
2022/03/11 09:59:59;;;;;;;10.10;3.80;;;8.50;97.00;;;;;;5048524;28;20025;-75
2022/03/11 10:02:25;;;;;;;7.43;3.13;;;8.50;96.50;;;;;;5029565;28;20026;-75
2022/03/11 10:04:57;;;;;;;11.13;4.00;;;8.70;97.40;;;;;;5048343;28;20026;-74
2022/03/11 10:07:25;;;;;;;8.77;3.75;;;8.80;97.60;;;;;;5030542;28;20042;-73
2022/03/11 10:09:52;;;;;;;13.35;3.42;;;9.00;97.90;;;;;;5048122;28;20057;-73
2022/03/11 10:12:26;;;;;;;7.38;3.35;;;9.10;96.60;;;;;;5048526;28;20030;-74
2022/03/11 10:15:01;;;;;;;9.55;4.20;;;9.30;95.50;;;;;;5048431;28;20064;-75
2022/03/11 10:17:37;;;;;;;9.13;2.55;;;9.20;95.40;;;;;;5028338;28;20029;-73
2022/03/11 10:20:12;;;;;;;10.43;3.95;;;9.40;94.90;;;;;;5047546;28;20014;-74
2022/03/11 10:22:40;;;;;;;9.48;2.92;;;9.50;95.30;;;;;;5047025;28;20022;-73
2022/03/11 10:25:16;;;;;;;10.88;3.35;;;9.70;95.10;;;;;;5047090;28;20025;-72
2022/03/11 10:28:15;;;;;;;11.77;3.70;;;10.00;94.40;;;;;;5047180;28;20044;-73
2022/03/11 10:30:44;;;;;;;7.43;2.70;;;10.10;93.10;;;;;;5046624;28;20033;-72
2022/03/11 10:33:12;;;;;;;9.65;3.72;;;10.20;92.90;;;;;;5047373;28;20025;-73
2022/03/11 10:35:45;;;;;;;10.20;3.70;;;10.20;93.30;;;;;;5047215;28;20026;-74
2022/03/11 10:38:14;;;;;;;9.48;3.55;;;10.40;92.70;;;;;;5047052;28;20041;-72
2022/03/11 10:40:52;;;;;;;6.57;3.60;;;10.30;92.00;;;;;;5047450;28;20041;-72
2022/03/11 10:43:25;;;;;;;8.95;3.58;;;10.40;92.70;;;;;;5047165;28;20022;-73
2022/03/11 10:45:53;;;;;;;6.85;3.13;;;10.50;91.70;;;;;;5016595;28;20109;-72
2022/03/11 10:48:42;;;;;;;16.25;3.53;;;10.70;92.20;;;;;;4992430;28;20038;-72
2022/03/11 10:51:18;;;;;;;10.55;3.83;;;10.90;91.10;;;;;;4987791;28;20053;-73
2022/03/11 10:53:49;;;;;;;9.98;3.13;;;11.00;91.70;;;;;;4987603;28;20057;-72
2022/03/11 10:56:33;;;;;;;9.68;3.83;;;11.20;91.50;;;;;;5015688;28;20037;-72
2022/03/11 10:58:59;;;;;;;11.32;3.70;;;11.40;90.30;;;;;;5026066;28;20081;-72
2022/03/11 11:01:44;;;;;;;7.68;2.92;;;11.60;90.50;;;;;;5007138;28;20034;-72
2022/03/11 11:04:13;;;;;;;7.03;3.38;;;11.60;88.60;;;;;;5006702;28;20054;-73
2022/03/11 11:06:40;;;;;;;8.45;2.90;;;11.70;88.50;;;;;;5006279;28;20046;-73
2022/03/11 11:09:08;;;;;;;19.40;4.00;;;11.80;87.20;;;;;;5006817;28;20023;-72
2022/03/11 11:11:34;;;;;;;7.75;2.88;;;11.90;90.00;;;;;;5006103;28;20030;-72
2022/03/11 11:14:08;;;;;;;10.15;2.95;;;12.10;85.30;;;;;;5006103;28;20050;-72
2022/03/11 11:16:40;;;;;;;7.00;2.72;;;12.10;85.50;;;;;;5006284;28;20042;-70
2022/03/11 11:19:14;;;;;;;12.18;3.55;;;12.00;84.80;;;;;;5006200;28;20086;-72
2022/03/11 11:21:42;;;;;;;8.85;3.10;;;12.20;82.30;;;;;;5006427;28;20056;-72
2022/03/11 11:24:23;;;;;;;8.50;2.70;;;12.30;81.70;;;;;;5006184;28;20506;-72
2022/03/11 11:26:53;;;;;;;8.05;3.03;;;12.20;81.90;;;;;;5004539;28;20038;-72
2022/03/11 11:29:36;;;;;;;20.48;3.47;;;12.40;80.40;;;;;;5006260;28;20035;-73
2022/03/11 11:32:16;;;;;;;8.13;3.28;;;12.50;82.20;;;;;;5005699;28;20034;-71
2022/03/11 11:34:42;;;;;;;9.07;3.25;;;12.80;81.80;;;;;;5006107;28;20041;-72
2022/03/11 11:37:28;;;;;;;12.02;3.58;;;12.90;81.50;;;;;;5006020;28;20030;-73
2022/03/11 11:39:55;;;;;;;7.47;2.90;;;12.90;79.20;;;;;;5005982;28;20026;-73
2022/03/11 11:42:21;;;;;;;8.10;2.97;;;12.90;78.80;;;;;;5005944;28;20068;-72
2022/03/11 11:44:47;;;;;;;6.75;2.58;;;12.90;75.60;;;;;;5024844;28;20061;-74
2022/03/11 11:47:16;;;;;;;9.63;3.17;;;12.70;75.70;;;;;;5027076;28;20371;-72
2022/03/11 11:49:42;;;;;;;5.05;3.08;;;12.70;75.90;;;;;;5045431;28;20427;-71
2022/03/11 11:52:12;;;;;;;5.03;2.53;;;13.00;79.10;;;;;;5045245;28;20031;-71
2022/03/11 11:54:40;;;;;;;12.82;3.30;;;13.20;76.30;;;;;;5045764;28;20056;-72
2022/03/11 11:57:07;;;;;;;9.55;3.22;;;13.40;79.40;;;;;;5046385;28;20036;-71
2022/03/11 11:59:37;;;;;;;7.40;2.88;;;13.70;75.40;;;;;;5046277;28;20025;-73
2022/03/11 12:02:23;;;;;;;15.65;3.10;;;13.80;75.70;;;;;;5044175;28;20187;-73
2022/03/11 12:04:49;;;;;;;6.45;2.80;;;13.80;72.50;;;;;;5040127;28;20014;-73
2022/03/11 12:07:17;;;;;;;6.60;2.85;;;13.90;75.30;;;;;;5025337;28;20513;-73
2022/03/11 12:10:00;;;;;;;8.48;2.42;;;13.80;73.50;;;;;;5033196;28;20469;-73
2022/03/11 12:12:25;;;;;;;5.20;2.30;;;13.60;69.00;;;;;;5038222;28;20025;-74
2022/03/11 12:14:57;;;;;;;11.77;2.95;;;13.40;70.40;;;;;;5024310;28;20037;-71
2022/03/11 12:17:35;;;;;;;7.32;2.65;;;13.20;70.40;;;;;;5038933;28;20028;-73
2022/03/11 12:20:22;;;;;;;4.63;2.42;;;13.20;73.20;;;;;;5045910;28;20072;-75
2022/03/11 12:23:06;;;;;;;9.55;2.58;;;13.40;72.40;;;;;;5027865;28;20153;-73
2022/03/11 12:25:36;;;;;;;5.13;2.42;;;13.60;72.10;;;;;;5044101;28;20040;-73
2022/03/11 12:28:12;;;;;;;5.20;2.60;;;14.00;72.10;;;;;;5044853;28;20037;-75
2022/03/11 12:30:48;;;;;;;6.30;1.92;;;14.20;68.90;;;;;;5045804;28;20473;-73
2022/03/11 12:33:23;;;;;;;6.03;2.80;;;14.20;69.30;;;;;;5044782;28;20085;-72
2022/03/11 12:35:52;;;;;;;5.10;2.58;;;14.20;66.50;;;;;;5045265;28;20441;-72
2022/03/11 12:38:25;;;;;;;7.53;2.08;;;14.00;66.90;;;;;;5044819;28;20029;-72
2022/03/11 12:40:54;;;;;;;4.68;2.25;;;14.00;67.60;;;;;;5027897;28;20025;-72
2022/03/11 12:43:21;;;;;;;3.72;2.05;;;13.90;67.20;;;;;;5040537;28;20033;-72
2022/03/11 12:45:53;;;;;;;2.60;1.45;;;13.80;67.20;;;;;;5025255;28;20041;-75
2022/03/11 12:48:28;;;;;;;10.55;2.20;;;13.70;66.60;;;;;;5023756;28;20075;-76
2022/03/11 12:50:54;;;;;;;5.15;2.17;;;13.90;69.20;;;;;;5041839;28;20129;-74